Time;durP1;ratioP1;P1;durP2;ratioP2;P2;SDS_P1;SDS_P2;PMS_P1;PMS_P2;Temp;Humidity;BMP_temperature;BMP_pressure;BME280_temperature;BME280_humidity;BME280_pressure;Samples;Min_cycle;Max_cycle;Signal;HPM_P1;HPM_P2
2022/12/12 04:55:51;;;;;;;5.87;2.40;;;;;;;2.83;70.04;98822.03;1725672;81;23514;-58
2022/12/12 04:58:18;;;;;;;6.33;2.22;;;;;;;2.73;70.14;98816.67;1731534;82;21552;-58
2022/12/12 05:01:02;;;;;;;7.17;2.67;;;;;;;2.63;70.26;98826.08;1758975;81;21477;-57
2022/12/12 05:03:42;;;;;;;6.40;2.00;;;;;;;2.59;70.45;98838.45;1727299;81;21508;-58
2022/12/12 05:06:13;;;;;;;8.20;5.17;;;;;;;2.55;70.58;98828.39;1743332;80;21092;-58
2022/12/12 05:08:45;;;;;;;5.03;2.12;;;;;;;2.55;70.76;98835.70;1732382;81;21847;-58
2022/12/12 05:11:12;;;;;;;5.83;2.08;;;;;;;2.62;70.53;98836.09;1732632;80;21495;-57
2022/12/12 05:13:41;;;;;;;7.05;2.50;;;;;;;2.68;70.54;98843.93;1730723;81;21057;-57
2022/12/12 05:16:27;;;;;;;7.33;2.98;;;;;;;2.73;70.54;98847.02;1714925;82;21089;-59
2022/12/12 05:18:54;;;;;;;6.70;2.33;;;;;;;2.78;70.43;98855.31;1700507;81;21026;-58
2022/12/12 05:21:20;;;;;;;6.10;2.40;;;;;;;2.77;70.62;98845.41;1757115;80;22149;-58
2022/12/12 05:23:47;;;;;;;9.93;6.37;;;;;;;2.77;70.68;98860.13;1722082;81;21532;-57
2022/12/12 05:26:32;;;;;;;8.33;2.83;;;;;;;2.75;70.79;98857.64;1700271;81;21453;-58
2022/12/12 05:28:59;;;;;;;7.47;3.10;;;;;;;2.73;70.86;98872.52;1735131;80;21573;-56
2022/12/12 05:31:26;;;;;;;5.90;2.70;;;;;;;2.72;71.03;98874.78;1757847;79;21161;-56
2022/12/12 05:33:52;;;;;;;5.78;2.37;;;;;;;2.70;71.15;98892.69;1751649;80;21548;-57
2022/12/12 05:36:21;;;;;;;5.25;1.85;;;;;;;2.66;71.01;98892.56;1734523;80;21071;-58
2022/12/12 05:38:48;;;;;;;6.47;2.55;;;;;;;2.63;70.80;98885.80;1725983;81;21020;-56
2022/12/12 05:41:15;;;;;;;9.55;5.47;;;;;;;2.65;70.72;98881.33;1745221;81;21139;-57
2022/12/12 05:43:41;;;;;;;6.75;2.87;;;;;;;2.67;70.68;98887.23;1743555;81;21044;-59
2022/12/12 05:46:08;;;;;;;10.00;6.53;;;;;;;2.74;71.10;98900.61;1739669;80;21854;-59
2022/12/12 05:48:35;;;;;;;6.28;2.42;;;;;;;2.79;71.28;98896.77;1740536;81;21061;-60
2022/12/12 05:51:03;;;;;;;10.48;5.90;;;;;;;2.76;70.95;98889.19;1737141;80;21859;-57
2022/12/12 06:04:45;;;;;;;5.05;1.67;;;;;;;2.58;70.80;98928.15;1743852;80;21152;-57
2022/12/12 06:07:12;;;;;;;7.20;2.22;;;;;;;2.49;71.89;98932.67;1750926;80;21631;-58
2022/12/12 06:09:39;;;;;;;5.47;2.10;;;;;;;2.28;72.43;98940.20;1753781;80;21576;-58
2022/12/12 06:12:08;;;;;;;9.00;5.45;;;;;;;2.08;72.80;98944.16;1754281;80;21235;-57
2022/12/12 06:14:36;;;;;;;4.55;1.37;;;;;;;1.96;73.33;98942.75;1748095;80;21124;-58
2022/12/12 06:17:02;;;;;;;5.00;2.05;;;;;;;1.91;73.55;98948.72;1747854;80;21479;-60
2022/12/12 06:19:29;;;;;;;6.28;2.60;;;;;;;1.89;73.53;98953.66;1745811;80;21541;-58
2022/12/12 06:21:58;;;;;;;8.70;5.40;;;;;;;1.96;73.69;98941.45;1750827;81;21465;-58
2022/12/12 06:24:24;;;;;;;7.10;2.55;;;;;;;2.07;73.81;98945.08;1723649;81;21265;-58
2022/12/12 06:26:51;;;;;;;4.83;2.60;;;;;;;2.16;73.88;98945.29;1752149;80;21484;-58
2022/12/12 06:29:17;;;;;;;9.95;6.30;;;;;;;2.21;73.70;98951.47;1729881;81;21529;-57
2022/12/12 06:31:44;;;;;;;6.10;2.25;;;;;;;2.20;73.46;98945.45;1748715;80;21191;-58
2022/12/12 06:34:10;;;;;;;7.55;2.83;;;;;;;2.21;72.91;98947.58;1753781;80;21651;-57
2022/12/12 06:36:37;;;;;;;5.03;1.90;;;;;;;2.15;72.56;98946.69;1712169;81;22568;-57
2022/12/12 06:39:05;;;;;;;6.58;2.25;;;;;;;2.20;72.30;98953.69;1713957;81;21176;-58
2022/12/12 06:41:32;;;;;;;5.67;2.12;;;;;;;2.27;71.78;98961.89;1749497;80;22465;-57
2022/12/12 06:43:59;;;;;;;6.47;2.77;;;;;;;2.30;71.63;98957.31;1722199;81;21663;-57
2022/12/12 06:46:27;;;;;;;6.67;2.22;;;;;;;2.33;71.66;98961.48;1704661;81;22572;-56
2022/12/12 06:48:54;;;;;;;6.92;3.02;;;;;;;2.38;71.70;98961.99;1744322;80;21475;-56
2022/12/12 06:51:23;;;;;;;6.25;1.87;;;;;;;2.40;71.35;98960.96;1715537;81;21180;-56
2022/12/12 06:53:50;;;;;;;7.12;2.90;;;;;;;2.34;70.59;98971.76;1751850;80;21100;-56
2022/12/12 06:56:19;;;;;;;9.30;3.65;;;;;;;2.19;70.19;98980.59;1725558;81;21124;-56
2022/12/12 06:58:45;;;;;;;8.45;3.10;;;;;;;2.09;70.15;98984.75;1744827;80;21068;-56
2022/12/12 07:01:15;;;;;;;8.03;3.70;;;;;;;2.00;70.46;98984.43;1729037;80;22175;-56
2022/12/12 07:03:41;;;;;;;5.80;2.45;;;;;;;1.95;70.45;98977.88;1737612;81;21130;-55
2022/12/12 07:06:08;;;;;;;6.60;2.30;;;;;;;2.03;70.70;98980.34;1743719;80;21133;-56
2022/12/12 07:08:35;;;;;;;7.83;2.67;;;;;;;2.15;70.67;98982.57;1715410;81;21110;-57
2022/12/12 07:11:05;;;;;;;7.08;2.33;;;;;;;2.20;70.29;98977.05;1728119;81;21082;-56
2022/12/12 07:13:32;;;;;;;7.55;4.12;;;;;;;2.20;70.05;98983.53;1754008;81;21246;-58
2022/12/12 07:15:58;;;;;;;5.97;2.65;;;;;;;2.16;70.15;98980.33;1751440;80;21069;-57
2022/12/12 07:18:25;;;;;;;8.35;2.62;;;;;;;2.17;70.30;98984.59;1747709;80;21120;-57
2022/12/12 07:20:51;;;;;;;7.05;2.45;;;;;;;2.16;70.13;98995.08;1752088;80;21963;-58
2022/12/12 07:23:18;;;;;;;7.70;2.75;;;;;;;2.08;70.65;98994.75;1715595;81;21604;-56
2022/12/12 07:25:45;;;;;;;10.18;4.12;;;;;;;2.02;71.36;99003.31;1750537;80;21813;-58
2022/12/12 07:28:14;;;;;;;7.95;3.58;;;;;;;1.98;71.87;99005.73;1751209;80;20974;-57
2022/12/12 07:30:43;;;;;;;12.78;9.08;;;;;;;1.98;71.99;99008.33;1707205;81;21212;-56
2022/12/12 07:33:10;;;;;;;7.67;2.62;;;;;;;1.97;71.99;99014.94;1730437;81;21105;-58
2022/12/12 07:35:37;;;;;;;7.72;4.08;;;;;;;1.96;71.76;99024.47;1724934;81;21606;-58
2022/12/12 07:38:04;;;;;;;8.93;3.87;;;;;;;1.99;71.59;99029.45;1727000;81;23459;-56
2022/12/12 07:40:31;;;;;;;8.08;3.10;;;;;;;2.06;71.49;99031.66;1749937;81;21056;-58
2022/12/12 07:42:59;;;;;;;11.83;8.00;;;;;;;2.12;71.31;99039.02;1725052;82;21050;-57
2022/12/12 07:45:26;;;;;;;11.93;4.83;;;;;;;2.10;71.03;99038.29;1737563;81;21091;-56
2022/12/12 07:47:52;;;;;;;11.53;7.85;;;;;;;2.10;70.42;99043.48;1751514;80;21108;-56
2022/12/12 07:50:20;;;;;;;10.60;3.55;;;;;;;2.07;69.56;99043.68;1729848;80;21240;-56
2022/12/12 07:52:46;;;;;;;7.65;4.25;;;;;;;1.99;68.87;99048.91;1748023;80;21108;-59
2022/12/12 07:55:13;;;;;;;8.23;3.42;;;;;;;1.97;68.58;99045.59;1753379;80;21103;-59
2022/12/12 07:57:41;;;;;;;8.83;3.72;;;;;;;1.92;68.06;99047.67;1749438;80;21027;-57
2022/12/12 08:00:13;;;;;;;10.00;3.85;;;;;;;1.91;68.12;99043.88;1755278;79;21104;-58
2022/12/12 08:02:40;;;;;;;8.60;4.47;;;;;;;1.87;67.64;99047.14;1725829;81;21090;-58
2022/12/12 08:05:09;;;;;;;8.53;3.30;;;;;;;1.87;67.95;99045.84;1728150;81;21101;-57
2022/12/12 08:07:36;;;;;;;7.35;3.20;;;;;;;1.88;67.83;99057.04;1757406;80;20986;-57
2022/12/12 08:10:06;;;;;;;12.35;8.85;;;;;;;1.87;67.42;99067.89;1728779;81;21042;-57
2022/12/12 08:12:33;;;;;;;9.55;4.33;;;;;;;1.84;67.37;99061.13;1753110;81;21513;-56
2022/12/12 08:15:00;;;;;;;8.83;3.92;;;;;;;1.84;67.40;99065.48;1706454;81;21911;-58
2022/12/12 08:17:28;;;;;;;9.83;4.15;;;;;;;1.86;67.60;99061.03;1747882;80;21062;-57
2022/12/12 08:19:55;;;;;;;10.08;4.60;;;;;;;1.90;67.78;99065.10;1758537;80;21563;-58
2022/12/12 08:22:21;;;;;;;7.67;3.92;;;;;;;1.94;67.52;99049.69;1745546;80;21477;-56
2022/12/12 08:24:48;;;;;;;9.23;4.03;;;;;;;1.94;67.18;99054.88;1757948;80;21123;-56
2022/12/12 08:27:15;;;;;;;9.13;4.67;;;;;;;1.96;67.31;99053.00;1749251;80;21143;-56
2022/12/12 08:29:42;;;;;;;13.03;5.05;;;;;;;1.97;67.41;99053.38;1739235;80;21104;-58
2022/12/12 08:32:09;;;;;;;12.88;5.35;;;;;;;2.04;67.46;99062.89;1755570;80;21111;-59
2022/12/12 08:34:36;;;;;;;17.37;11.35;;;;;;;2.11;67.57;99080.19;1749649;80;21112;-58
2022/12/12 08:37:03;;;;;;;13.00;6.03;;;;;;;2.14;67.00;99070.91;1759092;80;21068;-58
2022/12/12 08:39:31;;;;;;;10.60;4.28;;;;;;;2.13;67.02;99063.56;1757764;79;21222;-58
2022/12/12 08:41:57;;;;;;;14.15;7.42;;;;;;;2.18;66.86;99071.05;1740517;79;21094;-58
2022/12/12 08:44:23;;;;;;;9.05;4.15;;;;;;;2.16;66.58;99079.41;1746710;80;21033;-58
2022/12/12 08:46:50;;;;;;;11.30;4.85;;;;;;;2.14;66.48;99081.28;1745262;80;22263;-58
2022/12/12 08:49:17;;;;;;;12.88;4.70;;;;;;;2.10;66.60;99080.66;1751682;80;21622;-58
2022/12/12 08:51:44;;;;;;;14.23;4.78;;;;;;;2.11;66.66;99082.78;1747912;80;21139;-58
2022/12/12 08:54:12;;;;;;;10.08;4.90;;;;;;;2.08;66.71;99078.61;1754031;81;21104;-58
2022/12/12 08:56:39;;;;;;;13.00;7.28;;;;;;;2.06;66.73;99069.28;1753754;80;21457;-58
2022/12/12 08:59:06;;;;;;;11.18;5.37;;;;;;;2.07;66.58;99082.60;1748943;81;21108;-58
2022/12/12 09:01:33;;;;;;;13.25;6.25;;;;;;;2.02;66.09;99076.44;1744666;81;21044;-58
2022/12/12 09:04:01;;;;;;;11.15;5.47;;;;;;;1.98;66.47;99084.04;1759370;80;21249;-58
2022/12/12 09:06:29;;;;;;;20.15;13.40;;;;;;;1.97;66.60;99091.00;1757215;80;21578;-58
2022/12/12 09:08:57;;;;;;;13.28;6.40;;;;;;;1.95;66.59;99087.68;1754052;80;21432;-58
2022/12/12 09:11:25;;;;;;;12.03;5.00;;;;;;;1.97;66.55;99068.95;1752458;80;21056;-58
2022/12/12 09:13:51;;;;;;;13.08;6.53;;;;;;;1.95;66.57;99077.30;1751145;80;21080;-61
2022/12/12 09:16:18;;;;;;;12.60;5.65;;;;;;;1.96;66.67;99091.92;1759829;80;21275;-59
2022/12/12 09:18:46;;;;;;;13.72;5.90;;;;;;;1.94;66.78;99089.08;1753572;80;21346;-60
2022/12/12 09:21:12;;;;;;;13.00;6.35;;;;;;;1.94;67.03;99104.16;1744929;79;21539;-60
2022/12/12 09:23:40;;;;;;;20.30;14.55;;;;;;;1.92;67.01;99093.54;1739315;80;21480;-61
2022/12/12 09:26:07;;;;;;;14.70;6.17;;;;;;;1.97;67.17;99101.37;1747400;80;21091;-60
2022/12/12 09:28:33;;;;;;;11.40;5.75;;;;;;;1.97;66.96;99108.34;1737943;79;21257;-60
2022/12/12 09:31:05;;;;;;;12.47;6.47;;;;;;;1.96;66.95;99117.05;1743502;79;21148;-63
2022/12/12 09:33:32;;;;;;;14.43;6.97;;;;;;;1.91;66.73;99122.52;1736865;80;21324;-62
2022/12/12 09:36:01;;;;;;;15.95;7.10;;;;;;;1.86;66.71;99135.78;1752598;80;21078;-60
2022/12/12 09:38:30;;;;;;;13.65;6.35;;;;;;;1.79;66.98;99143.59;1730508;80;21198;-61
2022/12/12 09:41:10;;;;;;;13.48;5.67;;;;;;;1.76;67.14;99137.77;1739850;80;21128;-61
2022/12/12 09:43:51;;;;;;;13.03;5.40;;;;;;;1.75;67.30;99134.80;1750091;80;21067;-61
2022/12/12 09:46:33;;;;;;;14.13;6.50;;;;;;;1.79;67.48;99137.58;1705591;82;21200;-61
2022/12/12 09:49:23;;;;;;;15.93;6.95;;;;;;;1.77;67.58;99148.05;1744654;81;21119;-61
2022/12/12 09:51:50;;;;;;;14.35;7.58;;;;;;;1.77;67.60;99151.94;1742923;81;21528;-60
2022/12/12 09:54:22;;;;;;;13.68;6.35;;;;;;;1.79;67.72;99150.08;1749972;80;22285;-60
2022/12/12 09:57:27;;;;;;;16.23;7.37;;;;;;;1.80;67.48;99150.90;1723897;81;21249;-61
2022/12/12 10:00:08;;;;;;;15.65;6.50;;;;;;;1.78;67.45;99160.10;1751538;81;21162;-61
2022/12/12 10:03:20;;;;;;;15.72;6.20;;;;;;;1.76;67.45;99164.53;1753950;80;21141;-61
2022/12/12 10:06:08;;;;;;;13.72;5.33;;;;;;;1.77;67.49;99168.80;1722964;81;21095;-61
2022/12/12 10:09:21;;;;;;;14.53;6.30;;;;;;;1.78;67.58;99175.66;1730023;80;21938;-60
2022/12/12 10:11:53;;;;;;;12.40;5.10;;;;;;;1.76;67.19;99181.86;1748611;80;21737;-62
2022/12/12 10:14:33;;;;;;;12.65;5.62;;;;;;;1.77;67.15;99181.77;1750049;80;21056;-60
2022/12/12 10:17:00;;;;;;;12.95;4.67;;;;;;;1.78;66.88;99180.84;1748133;80;21126;-62
2022/12/12 10:19:30;;;;;;;13.48;5.75;;;;;;;1.79;66.27;99189.45;1718100;81;21013;-61
2022/12/12 10:22:02;;;;;;;12.33;4.83;;;;;;;1.78;66.36;99184.73;1750776;81;21186;-62
2022/12/12 10:24:50;;;;;;;10.03;5.33;;;;;;;1.77;65.35;99180.47;1751151;81;21100;-62
2022/12/12 10:27:17;;;;;;;10.85;4.65;;;;;;;1.76;65.63;99181.86;1749672;81;21108;-61
2022/12/12 10:36:01;;;;;;;13.55;5.37;;;;;;;1.71;65.77;99205.95;1731650;81;21194;-62
2022/12/12 10:39:09;;;;;;;12.88;5.22;;;;;;;1.73;65.27;99204.95;1747488;81;20987;-64
2022/12/12 10:41:45;;;;;;;14.98;6.28;;;;;;;1.71;64.95;99213.73;1748493;81;21078;-63
2022/12/12 10:44:42;;;;;;;13.75;5.12;;;;;;;1.65;65.00;99208.00;1705498;82;21101;-64
2022/12/12 10:47:11;;;;;;;12.15;5.28;;;;;;;1.63;64.71;99214.20;1714832;81;21054;-63
2022/12/12 10:49:39;;;;;;;14.70;5.17;;;;;;;1.54;64.50;99214.30;1719006;81;21165;-62
2022/12/12 10:52:11;;;;;;;12.68;5.75;;;;;;;1.55;64.82;99222.47;1717326;81;21530;-63
2022/12/12 10:54:59;;;;;;;12.10;5.50;;;;;;;1.54;64.97;99221.27;1719852;81;21028;-63
2022/12/12 10:57:34;;;;;;;14.58;6.87;;;;;;;1.56;65.13;99234.48;1721696;82;21603;-63
2022/12/12 11:00:03;;;;;;;13.63;7.30;;;;;;;1.59;65.23;99243.38;1750798;81;21048;-66
2022/12/12 11:02:36;;;;;;;13.08;6.05;;;;;;;1.58;64.83;99242.17;1670040;84;21787;-63
2022/12/12 11:05:21;;;;;;;10.25;4.08;;;;;;;1.55;64.72;99231.54;1748888;80;21535;-62
2022/12/12 11:09:57;;;;;;;9.40;4.10;;;;;;;1.39;65.85;99232.92;1795926;78;23653;-60
2022/12/12 11:12:32;;;;;;;11.97;4.95;;;;;;;1.61;65.47;99242.81;1750296;80;21094;-60
2022/12/12 11:15:10;;;;;;;12.18;4.92;;;;;;;1.66;65.14;99243.39;1749673;80;21234;-59
2022/12/12 11:17:38;;;;;;;11.70;5.10;;;;;;;1.63;65.20;99242.28;1741853;81;21048;-60
2022/12/12 11:20:11;;;;;;;12.55;5.75;;;;;;;1.63;65.15;99242.72;1752584;81;21054;-60
2022/12/12 11:22:38;;;;;;;10.90;5.25;;;;;;;1.59;64.96;99240.78;1753579;80;21026;-60
2022/12/12 11:25:06;;;;;;;15.35;6.37;;;;;;;1.58;65.07;99232.66;1713936;81;21124;-59
2022/12/12 11:27:36;;;;;;;19.23;13.53;;;;;;;1.52;65.42;99238.20;1711262;81;21228;-59
2022/12/12 11:30:09;;;;;;;14.73;5.25;;;;;;;1.57;65.66;99230.16;1702954;83;21010;-59
2022/12/12 11:32:38;;;;;;;12.50;5.87;;;;;;;1.63;65.77;99229.31;1682977;83;21034;-60
2022/12/12 11:35:19;;;;;;;15.08;7.25;;;;;;;1.67;65.85;99232.07;1688076;83;21062;-60
2022/12/12 11:37:49;;;;;;;13.72;6.15;;;;;;;1.70;65.80;99232.80;1714647;82;21138;-60
2022/12/12 11:40:28;;;;;;;13.40;6.47;;;;;;;1.72;65.72;99230.97;1717769;82;21203;-60
2022/12/12 11:43:24;;;;;;;13.03;6.03;;;;;;;1.75;65.63;99232.05;1701051;82;21090;-59
2022/12/12 11:46:16;;;;;;;13.72;5.35;;;;;;;1.77;65.82;99240.59;1702483;82;22287;-59
2022/12/12 11:48:54;;;;;;;16.25;6.83;;;;;;;1.85;65.63;99247.44;1678374;83;21050;-61
2022/12/12 11:51:42;;;;;;;10.48;4.78;;;;;;;1.84;65.22;99237.98;1712490;83;21109;-61
2022/12/12 11:54:29;;;;;;;11.15;3.83;;;;;;;1.83;64.80;99251.42;1711193;82;21154;-60
2022/12/12 11:57:07;;;;;;;12.33;5.62;;;;;;;1.79;64.30;99249.11;1708479;82;21014;-60
2022/12/12 12:00:04;;;;;;;9.68;4.15;;;;;;;1.73;64.10;99246.88;1710549;83;21042;-60
2022/12/12 12:03:06;;;;;;;8.68;3.92;;;;;;;1.66;64.12;99250.31;1706483;82;21141;-61
2022/12/12 12:05:51;;;;;;;9.08;3.55;;;;;;;1.63;64.35;99238.83;1710466;81;21031;-60
2022/12/12 12:08:27;;;;;;;11.18;4.95;;;;;;;1.63;64.51;99244.88;1721059;81;21160;-60
2022/12/12 12:11:38;;;;;;;10.18;3.92;;;;;;;1.64;64.84;99257.36;1716076;82;21050;-61
2022/12/12 12:14:45;;;;;;;15.40;5.90;;;;;;;1.64;64.80;99248.29;1719026;81;21063;-59
2022/12/12 12:17:37;;;;;;;;;;;;;;;1.63;64.94;99243.58;1697219;82;21043;-60
2022/12/12 12:20:21;;;;;;;14.78;4.87;;;;;;;1.62;65.02;99248.38;1689515;84;20177;-59
2022/12/12 12:23:20;;;;;;;12.68;5.97;;;;;;;1.61;64.74;99255.78;1689370;83;21155;-60
2022/12/12 12:26:04;;;;;;;9.25;4.92;;;;;;;1.58;64.88;99253.40;1688940;83;21075;-60
2022/12/12 12:28:58;;;;;;;10.75;4.30;;;;;;;1.58;65.09;99261.17;1716732;83;21015;-60
2022/12/12 12:31:51;;;;;;;10.05;5.17;;;;;;;1.60;65.34;99263.20;1688806;83;21001;-59
2022/12/12 12:34:26;;;;;;;14.28;4.72;;;;;;;1.60;65.30;99265.80;1703989;83;21149;-60
2022/12/12 12:37:10;;;;;;;13.80;5.70;;;;;;;1.62;65.35;99265.23;1700649;82;21167;-60
2022/12/12 12:40:03;;;;;;;11.93;5.60;;;;;;;1.63;65.38;99262.17;1699599;82;21098;-61
2022/12/12 12:42:50;;;;;;;11.40;5.37;;;;;;;1.64;65.26;99263.38;1697061;82;21046;-59
2022/12/12 12:45:27;;;;;;;11.43;4.50;;;;;;;1.67;65.47;99276.16;1704856;82;21071;-59
2022/12/12 12:48:00;;;;;;;16.55;10.25;;;;;;;1.69;65.21;99281.73;1704521;82;21098;-59
2022/12/12 12:50:39;;;;;;;9.23;4.00;;;;;;;1.65;64.92;99282.38;1697810;82;21235;-60
2022/12/12 12:53:38;;;;;;;14.15;5.40;;;;;;;1.57;64.47;99288.48;1676207;82;21059;-60
2022/12/12 12:56:24;;;;;;;9.38;4.12;;;;;;;1.51;64.68;99297.92;1704493;82;21050;-59
2022/12/12 12:58:52;;;;;;;9.93;4.90;;;;;;;1.46;65.02;99300.78;1706689;83;21038;-60
2022/12/12 13:01:28;;;;;;;10.90;3.95;;;;;;;1.48;65.29;99308.03;1704985;82;21544;-60
2022/12/12 13:04:01;;;;;;;10.48;4.67;;;;;;;1.48;65.20;99310.62;1704313;83;21571;-60
2022/12/12 13:07:00;;;;;;;10.32;4.83;;;;;;;1.48;65.21;99308.03;1702857;83;21043;-59
2022/12/12 13:09:44;;;;;;;10.03;4.00;;;;;;;1.46;65.13;99309.86;1696137;83;21610;-60
2022/12/12 13:12:28;;;;;;;12.43;5.12;;;;;;;1.47;65.35;99317.55;1687377;83;21095;-60
2022/12/12 13:15:17;;;;;;;9.13;3.52;;;;;;;1.43;65.35;99318.66;1688164;83;21102;-59
2022/12/12 13:18:05;;;;;;;8.78;3.60;;;;;;;1.41;65.38;99318.38;1691672;83;21160;-59
2022/12/12 13:20:41;;;;;;;11.33;4.33;;;;;;;1.41;65.58;99318.38;1688615;84;21130;-60
2022/12/12 13:23:46;;;;;;;9.68;4.17;;;;;;;1.38;65.65;99318.11;1688864;83;21072;-59
2022/12/12 13:26:41;;;;;;;9.78;4.97;;;;;;;1.42;65.80;99323.94;1683699;83;21076;-60
2022/12/12 13:29:34;;;;;;;9.48;3.45;;;;;;;1.45;65.68;99332.84;1697434;83;21730;-60
2022/12/12 13:32:26;;;;;;;11.43;3.85;;;;;;;1.43;64.85;99328.18;1699718;83;21171;-60
2022/12/12 13:34:57;;;;;;;10.95;4.03;;;;;;;1.39;64.88;99339.66;1661832;83;21055;-59
2022/12/12 13:37:23;;;;;;;10.65;4.25;;;;;;;1.37;65.27;99341.52;1699843;83;21055;-60
2022/12/12 13:40:05;;;;;;;10.90;4.40;;;;;;;1.44;65.57;99344.94;1703309;82;21058;-59
2022/12/12 13:42:56;;;;;;;11.15;5.53;;;;;;;1.47;65.29;99342.17;1696038;83;21055;-59
2022/12/12 13:45:42;;;;;;;10.82;5.55;;;;;;;1.51;65.17;99348.48;1703147;83;22408;-60
2022/12/12 13:48:32;;;;;;;8.47;4.30;;;;;;;1.49;65.51;99355.05;1694697;83;21072;-60
2022/12/12 13:51:30;;;;;;;8.95;4.30;;;;;;;1.49;65.51;99355.05;1692648;82;21585;-61
2022/12/12 13:54:12;;;;;;;7.58;3.27;;;;;;;1.50;65.21;99355.44;1701170;82;21102;-60
2022/12/12 13:57:01;;;;;;;9.73;4.25;;;;;;;1.50;65.07;99358.02;1696540;82;21071;-60
2022/12/12 13:59:28;;;;;;;12.03;3.85;;;;;;;1.48;64.76;99358.11;1701804;82;21932;-60
2022/12/12 14:02:05;;;;;;;12.03;4.83;;;;;;;1.44;64.85;99348.83;1733882;80;21458;-59
2022/12/12 14:04:38;;;;;;;9.63;5.08;;;;;;;1.45;64.96;99355.70;1688533;82;21535;-60
2022/12/12 14:07:17;;;;;;;9.03;3.52;;;;;;;1.44;64.75;99357.91;1742065;80;21058;-60
2022/12/12 14:09:51;;;;;;;9.28;3.83;;;;;;;1.43;64.75;99356.70;1749526;80;21086;-59
2022/12/12 14:12:26;;;;;;;10.25;4.70;;;;;;;1.42;64.91;99360.23;1751891;80;21449;-59
2022/12/12 14:15:05;;;;;;;9.53;3.75;;;;;;;1.41;64.95;99365.89;1746572;80;20970;-59
2022/12/12 14:17:34;;;;;;;10.78;3.60;;;;;;;1.43;65.16;99375.70;1741948;80;21450;-60
2022/12/12 14:20:01;;;;;;;17.40;10.88;;;;;;;1.45;65.19;99373.84;1712493;82;21061;-60
2022/12/12 14:22:45;;;;;;;10.00;3.95;;;;;;;1.52;65.25;99375.61;1693650;84;21598;-60
2022/12/12 14:25:19;;;;;;;9.65;4.25;;;;;;;1.57;65.35;99372.28;1692533;83;21320;-59
2022/12/12 14:27:53;;;;;;;11.80;5.25;;;;;;;1.62;65.32;99359.06;1691573;82;22008;-60
2022/12/12 14:30:45;;;;;;;11.97;5.37;;;;;;;1.65;65.28;99358.41;1698519;83;21107;-60
2022/12/12 14:33:20;;;;;;;11.28;4.60;;;;;;;1.70;65.18;99359.44;1689188;83;21091;-60
2022/12/12 14:36:01;;;;;;;8.75;3.70;;;;;;;1.71;65.05;99366.75;1690429;83;21508;-59
2022/12/12 14:38:44;;;;;;;11.20;5.37;;;;;;;1.75;65.09;99369.07;1718230;82;21130;-60
2022/12/12 14:41:20;;;;;;;11.35;5.60;;;;;;;1.79;65.02;99369.25;1713287;82;21064;-60
2022/12/12 14:43:55;;;;;;;11.43;4.58;;;;;;;1.83;65.04;99372.05;1689504;82;21063;-60
2022/12/12 14:46:22;;;;;;;10.53;4.92;;;;;;;1.87;64.97;99372.69;1681804;84;21064;-60
2022/12/12 14:48:48;;;;;;;11.78;5.08;;;;;;;1.86;64.73;99369.71;1689257;82;21560;-59
2022/12/12 14:51:20;;;;;;;18.30;12.70;;;;;;;1.83;64.45;99371.19;1646165;83;21510;-60
2022/12/12 14:53:51;;;;;;;10.55;4.40;;;;;;;1.78;64.51;99365.44;1701654;82;21047;-60
2022/12/12 14:56:35;;;;;;;11.48;4.85;;;;;;;1.76;64.72;99362.12;1703072;82;21051;-60
2022/12/12 14:59:08;;;;;;;10.32;4.72;;;;;;;1.76;64.81;99367.30;1704598;82;21011;-60
2022/12/12 15:01:43;;;;;;;14.83;5.67;;;;;;;1.76;64.76;99369.90;1675177;83;21046;-60
2022/12/12 15:04:28;;;;;;;12.18;5.37;;;;;;;1.74;64.53;99381.66;1705464;83;21177;-59
2022/12/12 15:06:57;;;;;;;9.63;4.20;;;;;;;1.69;64.47;99378.98;1699881;83;21062;-59
2022/12/12 15:09:30;;;;;;;10.32;4.30;;;;;;;1.64;64.58;99385.25;1696729;83;21067;-59
2022/12/12 15:12:16;;;;;;;10.75;4.83;;;;;;;1.63;64.69;99383.60;1685161;83;21036;-59
2022/12/12 15:14:50;;;;;;;12.43;4.80;;;;;;;1.64;64.89;99381.84;1687852;83;21064;-60
2022/12/12 15:17:25;;;;;;;10.60;4.47;;;;;;;1.69;64.92;99373.79;1691253;83;21406;-60
2022/12/12 15:20:14;;;;;;;9.85;4.67;;;;;;;1.67;64.86;99379.89;1692395;83;21027;-60
2022/12/12 15:22:55;;;;;;;11.03;5.12;;;;;;;1.66;64.89;99384.72;1694667;83;21038;-59
2022/12/12 15:25:26;;;;;;;11.78;5.08;;;;;;;1.69;65.14;99381.57;1691847;83;21552;-60
2022/12/12 15:27:53;;;;;;;13.40;5.22;;;;;;;1.70;65.04;99390.56;1693296;83;21028;-59
2022/12/12 15:30:38;;;;;;;10.72;3.90;;;;;;;1.72;65.11;99394.36;1738590;81;21304;-59
2022/12/12 15:33:16;;;;;;;10.90;4.20;;;;;;;1.75;65.17;99398.05;1738232;81;21629;-60
2022/12/12 15:35:58;;;;;;;12.85;5.70;;;;;;;1.80;65.10;99406.38;1739599;80;21000;-60
2022/12/12 15:38:25;;;;;;;10.25;4.85;;;;;;;1.83;65.01;99412.25;1688992;82;21055;-60
2022/12/12 15:40:53;;;;;;;10.75;5.10;;;;;;;1.86;64.66;99418.53;1702214;82;21544;-61
2022/12/12 15:43:25;;;;;;;10.30;5.20;;;;;;;1.84;64.36;99424.28;1699171;83;22068;-60
2022/12/12 15:46:12;;;;;;;9.95;4.78;;;;;;;1.83;64.15;99425.66;1732947;80;21059;-60
2022/12/12 15:48:32;;;;;;;12.63;5.72;;;;;;;1.82;64.21;99431.80;1743417;80;22105;-60
2022/12/12 15:51:02;;;;;;;21.85;15.43;;;;;;;1.82;64.29;99431.33;1720339;81;21829;-60
2022/12/12 15:53:40;;;;;;;12.75;6.65;;;;;;;1.88;64.34;99436.60;1737765;80;21051;-61
2022/12/12 15:56:14;;;;;;;14.03;6.05;;;;;;;1.94;64.31;99444.03;1715260;82;21595;-60
2022/12/12 15:58:48;;;;;;;10.18;4.75;;;;;;;1.98;64.35;99453.28;1739304;82;21039;-60
2022/12/12 16:01:18;;;;;;;11.85;6.60;;;;;;;1.94;63.99;99453.11;1695007;82;21039;-60
2022/12/12 16:04:01;;;;;;;10.55;4.78;;;;;;;1.96;64.05;99453.84;1706885;82;21114;-59
2022/12/12 16:06:40;;;;;;;12.00;5.92;;;;;;;1.96;64.00;99457.73;1697719;82;21089;-60
2022/12/12 16:09:22;;;;;;;10.13;4.95;;;;;;;1.99;63.75;99451.55;1698806;82;21118;-60
2022/12/12 16:11:54;;;;;;;9.70;5.12;;;;;;;1.93;63.45;99454.02;1738356;80;21437;-60
2022/12/12 16:14:37;;;;;;;9.30;3.90;;;;;;;1.89;63.68;99448.66;1745384;79;20948;-59
2022/12/12 16:17:16;;;;;;;13.03;5.12;;;;;;;1.90;63.64;99449.05;1726244;80;21579;-60
2022/12/12 16:20:03;;;;;;;10.60;5.12;;;;;;;1.92;63.62;99453.67;1682504;83;21071;-60
2022/12/12 16:22:44;;;;;;;16.95;12.05;;;;;;;1.95;63.81;99450.90;1737191;80;22114;-61
2022/12/12 16:25:24;;;;;;;10.58;4.45;;;;;;;1.98;63.91;99449.39;1724389;80;21055;-60
2022/12/12 16:28:01;;;;;;;12.63;6.17;;;;;;;2.04;64.03;99450.34;1691046;82;21003;-60
2022/12/12 16:30:28;;;;;;;13.20;4.62;;;;;;;2.11;63.92;99448.69;1702778;82;21090;-60
2022/12/12 16:32:55;;;;;;;11.65;4.97;;;;;;;2.13;63.77;99452.02;1736020;80;21019;-60
2022/12/12 16:35:23;;;;;;;17.60;11.83;;;;;;;2.16;63.84;99450.54;1735582;80;21256;-61
2022/12/12 16:37:51;;;;;;;9.98;5.08;;;;;;;2.21;63.73;99447.20;1736233;81;21008;-60
2022/12/12 16:40:19;;;;;;;10.50;5.20;;;;;;;2.28;63.72;99454.98;1737629;80;21043;-60
2022/12/12 16:43:01;;;;;;;9.55;4.58;;;;;;;2.30;63.58;99460.08;1737379;80;21570;-60
2022/12/12 16:45:28;;;;;;;10.13;4.53;;;;;;;2.33;63.56;99454.70;1687370;82;21627;-60
2022/12/12 16:47:57;;;;;;;11.40;6.35;;;;;;;2.34;63.63;99455.91;1705209;82;21247;-60
2022/12/12 16:50:24;;;;;;;13.70;7.65;;;;;;;2.37;63.81;99458.77;1739583;80;21061;-60
2022/12/12 16:52:51;;;;;;;10.10;5.45;;;;;;;2.36;64.00;99461.84;1736717;80;21035;-60
2022/12/12 16:55:21;;;;;;;13.83;6.55;;;;;;;2.41;64.11;99460.27;1737918;81;21061;-60
2022/12/12 16:57:47;;;;;;;12.73;4.70;;;;;;;2.43;64.00;99458.41;1738056;80;21542;-60
2022/12/12 17:00:15;;;;;;;13.13;5.35;;;;;;;2.44;63.87;99459.23;1696817;82;22073;-60
2022/12/12 17:02:43;;;;;;;11.10;5.72;;;;;;;2.43;64.09;99460.18;1703286;82;21071;-60
2022/12/12 17:05:16;;;;;;;14.40;6.65;;;;;;;2.46;64.22;99466.49;1733179;80;21040;-60
2022/12/12 17:07:43;;;;;;;11.60;5.50;;;;;;;2.45;64.37;99458.32;1683289;82;21071;-61
2022/12/12 17:10:10;;;;;;;14.87;7.47;;;;;;;2.48;64.46;99462.03;1696505;82;21094;-60
2022/12/12 17:12:38;;;;;;;12.05;6.45;;;;;;;2.49;64.43;99461.94;1695989;82;21252;-60
2022/12/12 17:15:08;;;;;;;13.72;6.65;;;;;;;2.52;64.24;99454.41;1734573;80;21035;-61
2022/12/12 17:17:35;;;;;;;11.83;6.47;;;;;;;2.52;64.16;99457.00;1707386;82;21038;-60
2022/12/12 17:20:03;;;;;;;12.18;5.70;;;;;;;2.53;64.08;99458.69;1734352;82;21088;-60
2022/12/12 17:22:30;;;;;;;18.67;12.95;;;;;;;2.53;63.95;99459.98;1734278;82;21099;-61
2022/12/12 17:24:56;;;;;;;10.93;4.97;;;;;;;2.52;63.82;99464.80;1736837;81;22178;-60